Time;durP1;ratioP1;P1;durP2;ratioP2;P2;SDS_P1;SDS_P2;PMS_P1;PMS_P2;Temp;Humidity;BMP_temperature;BMP_pressure;BME280_temperature;BME280_humidity;BME280_pressure;Samples;Min_cycle;Max_cycle;Signal;HPM_P1;HPM_P2
2023/04/05 00:02:09;;;;;;;50.95;31.42;;;;;;;17.26;81.25;98609.75;4943085;29;20054;-66
2023/04/05 00:04:49;;;;;;;61.53;31.90;;;;;;;17.26;81.26;98604.41;4942927;29;20074;-66
2023/04/05 00:07:20;;;;;;;53.70;30.70;;;;;;;17.27;81.16;98615.91;4937746;28;20051;-66
2023/04/05 00:09:50;;;;;;;47.70;30.42;;;;;;;17.21;80.81;98616.88;4943055;29;20463;-65
2023/04/05 00:12:20;;;;;;;61.47;30.95;;;;;;;17.18;80.49;98607.44;4944528;28;20051;-66
2023/04/05 00:14:50;;;;;;;52.42;30.33;;;;;;;17.22;80.61;98621.16;4940067;29;20047;-66
2023/04/05 00:17:19;;;;;;;53.72;27.92;;;;;;;17.24;79.72;98617.22;4942745;29;20150;-66
2023/04/05 00:19:56;;;;;;;48.83;26.38;;;;;;;17.22;79.95;98616.63;4943456;29;20563;-66
2023/04/05 00:22:26;;;;;;;45.63;27.05;;;;;;;17.18;79.64;98620.00;4944118;29;20086;-66
2023/04/05 00:24:55;;;;;;;45.88;26.63;;;;;;;17.17;79.62;98616.53;4925608;29;20142;-66
2023/04/05 00:27:25;;;;;;;42.90;25.20;;;;;;;17.18;78.37;98617.34;4936513;29;20090;-65
2023/04/05 00:29:54;;;;;;;41.22;24.95;;;;;;;17.19;78.76;98618.97;4944679;29;20114;-66
2023/04/05 00:32:24;;;;;;;39.63;24.15;;;;;;;17.16;78.83;98622.94;4925193;29;20091;-69
2023/04/05 00:34:56;;;;;;;42.10;24.63;;;;;;;17.18;79.09;98626.19;4931374;29;20376;-67
2023/04/05 00:37:25;;;;;;;44.65;25.40;;;;;;;17.12;79.25;98629.81;4916663;29;20043;-67
2023/04/05 00:39:56;;;;;;;48.42;25.27;;;;;;;17.14;78.65;98624.22;4939063;29;20043;-67
2023/04/05 00:42:26;;;;;;;40.83;24.65;;;;;;;17.21;78.45;98630.28;4935067;28;20183;-66
2023/04/05 00:44:55;;;;;;;45.78;23.98;;;;;;;17.22;78.88;98621.16;4927428;29;20074;-66
2023/04/05 00:47:27;;;;;;;47.78;25.20;;;;;;;17.18;79.53;98617.34;4942868;29;20047;-67
2023/04/05 00:49:58;;;;;;;42.33;25.23;;;;;;;17.16;79.15;98632.84;4942626;29;20045;-66
2023/04/05 00:52:29;;;;;;;48.17;24.88;;;;;;;17.14;79.06;98626.91;4936720;29;20047;-66
2023/04/05 00:54:59;;;;;;;42.00;25.05;;;;;;;17.11;79.45;98635.41;4941729;28;20090;-67
2023/04/05 00:57:29;;;;;;;44.78;26.05;;;;;;;17.14;79.70;98637.59;4946038;29;20051;-66
2023/04/05 01:00:00;;;;;;;45.17;25.27;;;;;;;17.15;79.60;98645.41;4929100;29;20062;-66
2023/04/05 01:02:30;;;;;;;47.13;26.30;;;;;;;17.22;80.40;98640.72;4928980;29;20051;-67
2023/04/05 01:05:14;;;;;;;46.97;26.15;;;;;;;17.18;80.04;98647.59;4928947;29;20062;-69
2023/04/05 01:08:19;;;;;;;49.10;26.00;;;;;;;17.18;80.81;98649.47;4925444;29;20744;-68
2023/04/05 01:10:55;;;;;;;49.47;26.05;;;;;;;17.18;81.14;98652.13;4926861;29;20561;-67
2023/04/05 01:13:29;;;;;;;46.90;26.50;;;;;;;17.23;80.60;98657.59;4920124;29;20048;-67
2023/04/05 01:15:59;;;;;;;43.25;25.88;;;;;;;17.28;79.92;98663.06;4941513;28;20043;-68
2023/04/05 01:18:29;;;;;;;45.22;27.55;;;;;;;17.35;79.72;98663.72;4922564;29;20134;-68
2023/04/05 01:21:37;;;;;;;45.40;27.00;;;;;;;17.39;79.25;98671.06;4964336;28;20130;-66
2023/04/05 01:24:34;;;;;;;48.92;29.02;;;;;;;17.49;79.09;98681.16;4932871;28;20685;-66
2023/04/05 01:27:08;;;;;;;59.10;30.27;;;;;;;17.58;78.70;98693.16;4948403;28;20543;-68
2023/04/05 01:30:05;;;;;;;62.67;31.85;;;;;;;17.68;78.00;98688.00;4949794;29;20498;-67
2023/04/05 01:32:50;;;;;;;56.92;30.85;;;;;;;17.79;78.44;98686.34;4949551;29;20491;-68
2023/04/05 01:35:52;;;;;;;57.65;34.40;;;;;;;17.91;77.43;98695.16;4949133;29;20739;-67
2023/04/05 01:38:26;;;;;;;57.65;34.42;;;;;;;18.01;77.68;98691.84;4933043;29;20047;-67
2023/04/05 01:40:56;;;;;;;75.93;39.17;;;;;;;18.09;76.60;98696.81;4940532;28;20071;-68
2023/04/05 01:43:25;;;;;;;72.53;37.03;;;;;;;18.19;76.28;98705.81;4947968;28;20082;-66
2023/04/05 01:45:54;;;;;;;70.10;38.03;;;;;;;18.29;75.72;98702.53;4948655;29;20051;-68
2023/04/05 01:48:24;;;;;;;68.43;38.13;;;;;;;18.42;75.75;98707.56;4941249;28;20103;-67
2023/04/05 01:50:53;;;;;;;77.32;39.60;;;;;;;18.66;75.30;98703.72;4952698;28;20051;-68
2023/04/05 01:53:23;;;;;;;82.70;41.60;;;;;;;18.81;73.43;98706.63;4949468;29;20427;-68
2023/04/05 01:55:52;;;;;;;73.30;41.88;;;;;;;18.87;72.56;98712.88;4949331;29;20055;-67
2023/04/05 01:58:22;;;;;;;77.38;42.42;;;;;;;19.03;73.78;98716.63;4947980;29;20051;-67
2023/04/05 02:00:54;;;;;;;77.63;41.70;;;;;;;19.20;73.02;98710.16;4932300;29;20067;-68
2023/04/05 02:03:25;;;;;;;87.03;43.17;;;;;;;19.36;71.85;98716.53;4929659;29;20047;-67
2023/04/05 02:05:54;;;;;;;73.10;41.33;;;;;;;19.67;72.78;98715.91;4931529;29;20383;-67
2023/04/05 02:08:24;;;;;;;68.82;41.47;;;;;;;19.88;71.87;98713.44;4957962;28;20049;-67
2023/04/05 02:10:54;;;;;;;82.53;41.88;;;;;;;20.35;69.46;98714.50;4950465;28;20050;-67
2023/04/05 02:13:25;;;;;;;66.18;37.35;;;;;;;21.31;66.04;98717.91;4960985;28;20468;-67
2023/04/05 02:15:54;;;;;;;130.48;36.83;;;;;;;21.97;62.51;98726.31;4948731;28;20484;-67
2023/04/05 02:18:31;;;;;;;110.22;36.63;;;;;;;22.53;61.54;98723.69;4930063;29;20146;-67
2023/04/05 02:21:09;;;;;;;74.13;32.05;;;;;;;22.87;59.29;98738.31;4916863;29;20483;-67
2023/04/05 02:23:38;;;;;;;57.00;30.02;;;;;;;23.25;56.94;98740.41;4933994;29;20587;-64
2023/04/05 02:26:08;;;;;;;62.58;30.95;;;;;;;23.78;55.91;98735.41;4927837;29;20047;-64
2023/04/05 02:28:37;;;;;;;50.30;28.92;;;;;;;24.15;55.66;98732.25;4923215;29;20578;-62
2023/04/05 02:31:11;;;;;;;112.32;33.33;;;;;;;24.35;53.94;98734.03;4946705;28;20062;-62
2023/04/05 02:33:42;;;;;;;50.67;29.27;;;;;;;24.53;53.39;98741.50;4929848;29;20058;-63
2023/04/05 02:36:12;;;;;;;52.30;29.27;;;;;;;24.83;53.24;98746.69;4947967;28;20043;-62
2023/04/05 02:38:42;;;;;;;55.22;28.52;;;;;;;25.03;51.45;98754.69;4948704;28;20055;-62
2023/04/05 02:41:11;;;;;;;45.63;26.20;;;;;;;25.00;51.25;98755.22;4958430;28;20047;-64
2023/04/05 02:43:40;;;;;;;46.25;25.30;;;;;;;25.09;51.53;98752.72;4949703;28;20047;-64
2023/04/05 02:46:10;;;;;;;42.35;24.88;;;;;;;24.77;51.36;98758.66;4948077;28;20370;-64
2023/04/05 02:48:42;;;;;;;50.83;24.52;;;;;;;24.49;53.63;98764.81;4929778;29;20194;-64
2023/04/05 02:51:13;;;;;;;45.65;24.42;;;;;;;24.73;52.18;98759.50;4946413;28;20113;-64
2023/04/05 02:53:46;;;;;;;47.55;25.65;;;;;;;24.33;55.32;98769.53;4946266;29;20058;-64
2023/04/05 02:56:15;;;;;;;;;;;;;;;24.23;55.23;98779.59;4931550;29;20043;-63
2023/04/05 02:58:50;;;;;;;43.72;25.92;;;;;;;24.06;52.79;98780.75;4931286;29;19962;-63
2023/04/05 03:01:24;;;;;;;51.00;27.27;;;;;;;24.05;55.02;98791.84;4927404;29;20051;-64
2023/04/05 03:03:53;;;;;;;47.97;27.70;;;;;;;24.01;54.27;98790.78;4942308;28;20043;-64
2023/04/05 03:06:23;;;;;;;49.30;27.00;;;;;;;24.09;54.89;98790.19;4930441;29;20039;-63
2023/04/05 03:08:52;;;;;;;48.08;26.52;;;;;;;24.01;56.35;98805.13;4927957;29;20067;-64
2023/04/05 03:11:24;;;;;;;51.38;28.20;;;;;;;23.98;54.40;98797.56;4926886;29;20110;-63
2023/04/05 03:13:57;;;;;;;54.78;28.92;;;;;;;23.84;55.17;98801.94;4946244;29;20046;-63
2023/04/05 03:16:43;;;;;;;59.17;28.23;;;;;;;23.63;53.41;98805.81;4930732;29;20039;-64
2023/04/05 03:19:24;;;;;;;54.53;27.75;;;;;;;23.60;54.20;98812.56;4947273;29;20130;-63
2023/04/05 03:22:01;;;;;;;53.22;26.20;;;;;;;23.68;53.63;98806.56;4928291;28;20051;-63
2023/04/05 03:24:35;;;;;;;42.83;25.13;;;;;;;23.72;54.17;98806.84;4930584;29;20047;-64
2023/04/05 03:27:08;;;;;;;50.85;26.35;;;;;;;23.90;54.86;98808.16;4931220;29;20036;-63
2023/04/05 03:29:52;;;;;;;50.83;24.63;;;;;;;23.88;54.77;98808.41;4926087;29;20055;-64
2023/04/05 03:32:21;;;;;;;52.72;23.85;;;;;;;23.94;52.16;98803.81;4932879;29;20067;-64
2023/04/05 03:34:59;;;;;;;48.88;21.38;;;;;;;24.08;53.51;98819.16;4943245;28;20131;-60
2023/04/05 03:37:33;;;;;;;37.10;20.77;;;;;;;24.00;55.92;98814.31;4922788;29;20051;-63
2023/04/05 03:40:08;;;;;;;45.10;17.93;;;;;;;23.92;53.61;98812.19;4942578;28;20106;-62
2023/04/05 03:42:38;;;;;;;33.33;15.50;;;;;;;23.80;52.91;98811.69;4933874;29;20091;-63
2023/04/05 03:45:07;;;;;;;26.58;16.65;;;;;;;23.99;55.11;98809.97;4935058;28;20061;-63
2023/04/05 03:47:36;;;;;;;33.55;16.73;;;;;;;24.04;53.79;98814.56;4945877;29;20051;-63
2023/04/05 03:50:08;;;;;;;27.30;16.17;;;;;;;24.10;53.15;98819.69;4923246;29;20805;-62
2023/04/05 03:52:38;;;;;;;34.85;18.17;;;;;;;23.91;53.60;98820.56;4929830;29;20510;-63
2023/04/05 03:55:08;;;;;;;36.83;19.35;;;;;;;23.96;54.36;98828.69;4922928;29;20043;-62
2023/04/05 03:57:38;;;;;;;37.70;19.35;;;;;;;23.98;54.74;98823.81;4945979;29;20432;-62
2023/04/05 04:00:22;;;;;;;40.63;22.40;;;;;;;24.05;54.11;98830.53;4929248;29;20138;-62
2023/04/05 04:03:15;;;;;;;40.78;21.08;;;;;;;24.15;54.75;98830.53;4940661;29;20044;-63
2023/04/05 04:05:48;;;;;;;33.50;19.27;;;;;;;24.25;53.86;98826.16;4920129;29;20362;-63
2023/04/05 04:08:18;;;;;;;31.30;17.55;;;;;;;24.33;53.82;98822.88;4924494;29;20058;-63
2023/04/05 04:10:49;;;;;;;29.52;18.10;;;;;;;24.22;52.76;98813.16;4926415;29;20066;-62
2023/04/05 04:13:25;;;;;;;44.92;19.60;;;;;;;24.12;53.50;98812.09;4924783;29;20134;-62
2023/04/05 04:16:11;;;;;;;31.35;18.90;;;;;;;24.30;51.94;98820.69;4921376;29;20623;-61
2023/04/05 04:18:44;;;;;;;46.60;20.80;;;;;;;24.30;51.72;98823.41;4948285;28;20131;-62
2023/04/05 04:21:27;;;;;;;39.55;21.75;;;;;;;24.33;52.24;98826.38;4926305;29;20056;-62
2023/04/05 04:24:18;;;;;;;39.33;21.98;;;;;;;24.66;53.04;98826.72;4917097;28;20050;-63
2023/04/05 04:26:53;;;;;;;31.63;20.48;;;;;;;24.78;52.08;98835.34;4925514;29;20483;-63
2023/04/05 04:29:30;;;;;;;25.40;13.82;;;;;;;24.99;51.70;98837.63;4939069;29;20051;-63
2023/04/05 04:32:25;;;;;;;20.60;11.20;;;;;;;25.03;49.41;98843.31;4945606;28;20061;-63
2023/04/05 04:35:17;;;;;;;24.42;11.15;;;;;;;25.27;51.12;98838.75;4930802;29;20126;-61
2023/04/05 04:38:19;;;;;;;23.58;13.30;;;;;;;25.44;49.01;98841.06;4919971;28;20080;-63
2023/04/05 04:41:10;;;;;;;20.48;10.88;;;;;;;25.74;49.55;98843.50;4925356;29;20150;-63
2023/04/05 04:43:46;;;;;;;23.88;12.90;;;;;;;26.19;48.26;98844.06;4936828;29;20047;-64
2023/04/05 04:46:19;;;;;;;19.20;11.77;;;;;;;26.52;47.31;98840.38;4928795;28;20483;-63
2023/04/05 04:48:57;;;;;;;19.08;10.60;;;;;;;26.91;46.73;98834.66;4911627;29;20631;-64
2023/04/05 04:51:32;;;;;;;16.42;9.85;;;;;;;27.00;46.44;98830.19;4929348;29;20458;-64
2023/04/05 04:54:02;;;;;;;29.98;12.43;;;;;;;27.37;45.17;98826.56;4942746;28;20516;-63
2023/04/05 04:56:32;;;;;;;22.63;11.52;;;;;;;27.72;45.57;98821.59;4945807;28;20119;-65
2023/04/05 04:59:01;;;;;;;25.98;10.70;;;;;;;27.60;44.37;98831.09;4943728;29;20051;-61
2023/04/05 05:01:32;;;;;;;17.45;10.18;;;;;;;26.44;43.11;98822.03;4945372;28;20050;-61
2023/04/05 05:04:03;;;;;;;13.60;9.02;;;;;;;27.15;44.83;98823.69;4945345;28;20166;-62
2023/04/05 05:06:36;;;;;;;20.60;9.57;;;;;;;28.08;45.25;98812.44;4960573;28;20638;-61
2023/04/05 05:09:06;;;;;;;21.40;9.20;;;;;;;27.93;42.33;98811.94;4945179;28;20043;-63
2023/04/05 05:11:58;;;;;;;19.88;9.05;;;;;;;27.88;41.37;98814.78;4945110;29;20057;-61
2023/04/05 05:14:27;;;;;;;18.27;8.40;;;;;;;28.09;40.20;98816.78;4932878;29;20091;-62
2023/04/05 05:17:00;;;;;;;18.80;8.38;;;;;;;27.78;42.44;98814.97;4944049;29;20089;-63
2023/04/05 05:19:30;;;;;;;22.63;9.35;;;;;;;28.57;44.58;98813.59;4942478;29;20423;-63
2023/04/05 05:21:59;;;;;;;17.58;8.82;;;;;;;28.30;42.49;98811.75;4945990;28;20062;-62
2023/04/05 05:24:29;;;;;;;25.73;10.40;;;;;;;28.72;43.71;98807.84;4943049;28;20138;-62
2023/04/05 05:26:58;;;;;;;14.57;9.00;;;;;;;28.77;40.31;98804.97;4944209;29;20047;-62
2023/04/05 05:29:28;;;;;;;14.88;7.82;;;;;;;28.68;40.36;98806.78;4945080;29;20123;-63
2023/04/05 05:31:57;;;;;;;18.63;7.45;;;;;;;28.93;38.24;98803.50;4947918;28;20047;-62
2023/04/05 05:34:27;;;;;;;16.63;7.25;;;;;;;28.84;40.17;98804.53;4935454;29;20047;-61
2023/04/05 05:36:58;;;;;;;12.38;6.28;;;;;;;28.83;38.63;98798.28;4909965;29;20043;-58
2023/04/05 05:39:27;;;;;;;12.38;7.25;;;;;;;29.12;41.34;98806.00;4945168;29;20067;-60
2023/04/05 05:41:57;;;;;;;17.98;7.60;;;;;;;29.45;39.09;98793.72;4945404;28;20043;-60
2023/04/05 05:44:26;;;;;;;14.60;6.30;;;;;;;29.61;40.71;98801.53;4912005;29;20501;-60
2023/04/05 05:46:57;;;;;;;13.02;5.13;;;;;;;29.65;35.34;98795.09;4939306;29;20058;-64
2023/04/05 05:49:27;;;;;;;12.90;6.55;;;;;;;29.69;38.02;98798.81;4944893;28;20408;-65
2023/04/05 05:51:56;;;;;;;18.42;9.07;;;;;;;29.38;39.80;98793.38;4944761;29;20074;-64
2023/04/05 05:54:26;;;;;;;22.98;7.95;;;;;;;29.48;39.07;98792.28;4944533;29;20897;-63
2023/04/05 05:56:56;;;;;;;20.00;6.25;;;;;;;29.26;39.48;98795.03;4945058;28;20051;-62
2023/04/05 05:59:26;;;;;;;12.18;5.10;;;;;;;29.34;37.89;98797.84;4937268;28;20467;-63
2023/04/05 06:01:55;;;;;;;14.80;4.60;;;;;;;28.73;31.57;98794.97;4941581;29;20054;-64
2023/04/05 06:04:26;;;;;;;13.35;5.20;;;;;;;28.50;37.07;98794.16;4945302;28;20142;-66
2023/04/05 06:06:57;;;;;;;8.30;5.15;;;;;;;28.85;34.57;98792.53;4948367;29;20105;-63
2023/04/05 06:09:27;;;;;;;13.55;4.50;;;;;;;29.43;34.33;98790.50;4948259;29;20063;-64
2023/04/05 06:11:57;;;;;;;15.48;3.92;;;;;;;29.28;37.28;98788.16;4947703;29;20058;-65
2023/04/05 06:14:28;;;;;;;13.43;4.35;;;;;;;29.17;34.21;98784.06;4945176;29;20055;-62
2023/04/05 06:16:58;;;;;;;15.02;4.10;;;;;;;29.29;35.75;98783.50;4947227;29;20050;-64
2023/04/05 06:19:27;;;;;;;9.98;4.78;;;;;;;29.43;39.22;98782.31;4925183;29;20048;-65
2023/04/05 06:21:56;;;;;;;11.98;3.85;;;;;;;29.31;35.83;98776.63;4940735;29;20129;-63
2023/04/05 06:24:30;;;;;;;14.48;4.43;;;;;;;29.64;37.21;98779.03;4937383;29;20348;-64
2023/04/05 06:27:00;;;;;;;17.55;5.05;;;;;;;29.37;35.08;98772.66;4946892;29;20043;-65
2023/04/05 06:29:30;;;;;;;11.73;4.20;;;;;;;29.41;34.47;98767.38;4947387;29;20451;-64
2023/04/05 06:32:00;;;;;;;12.82;4.55;;;;;;;29.17;36.28;98769.63;4942002;28;20625;-64
2023/04/05 06:34:29;;;;;;;13.73;3.58;;;;;;;28.99;30.62;98766.78;4945846;29;20043;-63
2023/04/05 06:36:59;;;;;;;12.10;4.65;;;;;;;29.11;37.12;98760.78;4947893;29;20039;-65
2023/04/05 06:39:29;;;;;;;14.43;4.40;;;;;;;28.43;31.81;98770.03;4928562;29;20039;-62
2023/04/05 06:41:58;;;;;;;8.98;4.20;;;;;;;29.13;35.15;98763.97;4947216;29;20130;-62
2023/04/05 06:44:37;;;;;;;12.50;4.18;;;;;;;29.03;35.04;98756.09;4926299;29;20058;-62
2023/04/05 06:47:06;;;;;;;10.07;3.92;;;;;;;28.90;33.42;98759.69;4925931;29;20062;-62
2023/04/05 06:49:36;;;;;;;18.00;3.58;;;;;;;29.12;32.00;98753.41;4946985;29;20051;-62
2023/04/05 06:52:05;;;;;;;16.98;3.60;;;;;;;28.59;33.92;98759.56;4947281;29;20464;-62
2023/04/05 06:54:38;;;;;;;12.38;3.63;;;;;;;29.00;33.32;98752.03;4944199;29;20098;-61
2023/04/05 06:57:07;;;;;;;14.00;3.75;;;;;;;29.11;32.11;98749.06;4946953;29;20061;-61
2023/04/05 06:59:37;;;;;;;9.52;5.13;;;;;;;28.70;29.86;98744.63;4947607;29;20383;-61
2023/04/05 07:02:06;;;;;;;14.13;4.22;;;;;;;28.52;33.30;98743.66;4944081;29;20047;-62
2023/04/05 07:04:36;;;;;;;17.50;4.90;;;;;;;28.85;33.55;98746.19;4943694;29;20048;-62
2023/04/05 07:07:05;;;;;;;14.02;4.03;;;;;;;29.09;36.64;98738.44;4946710;29;20059;-62
2023/04/05 07:09:36;;;;;;;12.93;3.75;;;;;;;29.22;32.94;98725.84;4947323;29;20047;-62
2023/04/05 07:12:08;;;;;;;12.00;4.13;;;;;;;28.97;31.34;98730.84;4944233;29;20051;-63
2023/04/05 07:14:37;;;;;;;10.68;3.65;;;;;;;28.87;33.88;98722.13;4944368;29;20087;-61
2023/04/05 07:17:07;;;;;;;9.77;3.92;;;;;;;29.16;35.44;98714.28;4943716;28;20067;-63
2023/04/05 07:19:36;;;;;;;10.15;4.25;;;;;;;29.49;34.11;98717.47;4947173;29;20039;-62
2023/04/05 07:22:05;;;;;;;13.20;4.03;;;;;;;29.51;32.46;98715.25;4946699;29;20039;-63
2023/04/05 07:24:35;;;;;;;16.48;4.63;;;;;;;29.45;31.16;98711.84;4946891;28;20079;-62
2023/04/05 07:27:05;;;;;;;10.60;4.22;;;;;;;29.57;35.71;98713.97;4946948;28;20047;-62
2023/04/05 07:29:37;;;;;;;13.70;4.45;;;;;;;29.44;31.39;98707.50;4946903;28;20048;-62
2023/04/05 07:32:07;;;;;;;13.52;3.72;;;;;;;29.22;33.47;98706.75;4942820;28;20129;-62
2023/04/05 07:34:37;;;;;;;14.65;4.25;;;;;;;29.36;34.81;98696.56;4945468;29;20043;-62
2023/04/05 07:37:07;;;;;;;12.73;4.63;;;;;;;29.32;37.03;98693.66;4946710;29;20062;-62
2023/04/05 07:39:36;;;;;;;14.95;4.30;;;;;;;29.34;34.47;98691.41;4946802;29;20094;-62
2023/04/05 07:42:06;;;;;;;17.52;4.40;;;;;;;28.97;33.02;98686.41;4946197;29;20054;-62
2023/04/05 07:44:35;;;;;;;14.88;5.28;;;;;;;28.70;34.05;98686.53;4944951;29;20047;-62
2023/04/05 07:47:04;;;;;;;11.70;4.20;;;;;;;28.86;37.06;98682.31;4945657;29;20047;-62
2023/04/05 07:49:36;;;;;;;16.35;5.72;;;;;;;28.91;34.94;98683.00;4946068;29;20077;-63
2023/04/05 07:52:05;;;;;;;20.88;5.20;;;;;;;28.29;30.88;98673.09;4943875;29;20047;-63
2023/04/05 07:54:38;;;;;;;14.32;4.90;;;;;;;28.70;37.32;98668.28;4941528;29;20040;-61
2023/04/05 07:57:08;;;;;;;14.98;5.55;;;;;;;28.80;34.44;98676.22;4945182;29;20051;-61
2023/04/05 07:59:37;;;;;;;13.02;6.20;;;;;;;28.82;35.97;98671.25;4945022;29;20050;-61
2023/04/05 08:02:07;;;;;;;15.40;5.20;;;;;;;29.00;33.51;98662.03;4943878;29;20171;-61
2023/04/05 08:04:42;;;;;;;15.70;5.07;;;;;;;29.12;34.82;98664.16;4945700;28;20059;-61
2023/04/05 08:07:12;;;;;;;18.98;5.72;;;;;;;29.14;34.36;98656.47;4943565;29;20479;-61
2023/04/05 08:09:41;;;;;;;18.02;5.60;;;;;;;29.15;33.00;98647.19;4928390;29;20436;-62
2023/04/05 08:12:10;;;;;;;15.02;6.10;;;;;;;29.23;34.77;98649.13;4926976;29;20131;-61
2023/04/05 08:14:40;;;;;;;11.93;5.40;;;;;;;29.28;32.42;98646.28;4945495;29;20051;-61
2023/04/05 08:17:09;;;;;;;19.83;6.53;;;;;;;29.37;32.41;98655.31;4944863;28;20126;-62
2023/04/05 08:19:40;;;;;;;13.98;5.78;;;;;;;29.34;31.89;98645.03;4942482;28;20525;-62
2023/04/05 08:22:09;;;;;;;21.77;6.03;;;;;;;29.23;29.79;98640.16;4954755;28;20121;-62
2023/04/05 08:24:38;;;;;;;12.18;5.20;;;;;;;29.11;30.70;98631.78;4925749;29;20051;-62
2023/04/05 08:27:08;;;;;;;16.42;6.22;;;;;;;29.04;32.20;98624.03;4923577;29;20044;-62
2023/04/05 08:29:37;;;;;;;14.25;5.50;;;;;;;29.13;31.17;98621.31;4934077;29;20058;-61
2023/04/05 08:32:07;;;;;;;18.00;6.15;;;;;;;29.13;31.79;98615.88;4945041;29;20046;-62
2023/04/05 08:34:37;;;;;;;16.98;6.57;;;;;;;29.09;33.43;98610.25;4940687;29;20055;-61
2023/04/05 08:37:06;;;;;;;21.83;6.97;;;;;;;28.97;34.02;98610.84;4938727;29;20062;-62
2023/04/05 08:39:35;;;;;;;13.30;6.25;;;;;;;29.09;34.41;98602.06;4944991;29;20483;-60
2023/04/05 08:42:16;;;;;;;20.10;6.55;;;;;;;28.65;29.43;98589.34;4945345;29;20070;-62
2023/04/05 08:44:51;;;;;;;25.17;6.60;;;;;;;28.61;31.96;98580.19;4943639;29;20154;-62
2023/04/05 08:47:23;;;;;;;14.32;6.38;;;;;;;28.76;30.78;98585.28;4943739;28;20055;-62
2023/04/05 08:49:53;;;;;;;18.73;7.40;;;;;;;28.92;29.03;98577.47;4939530;29;20082;-60
2023/04/05 08:52:22;;;;;;;23.52;6.38;;;;;;;28.99;30.87;98572.34;4943421;29;20058;-61
2023/04/05 08:54:54;;;;;;;14.52;5.90;;;;;;;29.07;31.13;98577.06;4944430;29;20122;-61
2023/04/05 08:57:27;;;;;;;14.23;5.85;;;;;;;29.09;31.41;98572.06;4935469;29;20043;-62
2023/04/05 09:00:00;;;;;;;16.52;6.35;;;;;;;29.05;28.23;98568.38;4945740;28;20059;-62
2023/04/05 09:02:31;;;;;;;16.77;5.72;;;;;;;28.98;32.42;98573.50;4961061;28;20047;-63
2023/04/05 09:05:02;;;;;;;17.67;6.55;;;;;;;28.86;33.56;98568.63;4946008;28;20772;-62
2023/04/05 09:07:31;;;;;;;16.08;7.00;;;;;;;28.76;31.51;98568.09;4946041;29;20050;-61
2023/04/05 09:10:02;;;;;;;20.80;7.15;;;;;;;28.67;31.35;98557.13;4946133;28;20051;-63
2023/04/05 09:12:32;;;;;;;17.25;7.15;;;;;;;28.39;28.35;98563.88;4945957;29;20101;-62
2023/04/05 09:15:01;;;;;;;18.75;7.68;;;;;;;28.32;28.43;98555.34;4945016;29;20058;-62
2023/04/05 09:17:32;;;;;;;13.77;7.03;;;;;;;28.32;32.44;98553.44;4946131;29;20543;-61
2023/04/05 09:20:02;;;;;;;15.70;6.43;;;;;;;28.51;32.02;98550.47;4945425;28;20074;-62
2023/04/05 09:22:44;;;;;;;14.07;5.70;;;;;;;28.54;31.82;98549.88;4962880;28;20406;-62
2023/04/05 09:25:41;;;;;;;17.90;6.20;;;;;;;28.75;32.26;98550.94;4953802;28;20058;-61
2023/04/05 09:28:11;;;;;;;17.88;6.28;;;;;;;28.76;31.31;98551.75;4942248;29;20043;-62
2023/04/05 09:30:46;;;;;;;13.15;6.38;;;;;;;28.56;28.24;98544.88;4945532;28;20047;-61
2023/04/05 09:33:19;;;;;;;12.15;5.68;;;;;;;28.64;28.51;98537.84;4945504;29;20756;-61
2023/04/05 09:35:50;;;;;;;16.67;6.18;;;;;;;28.68;29.45;98539.63;4946492;28;20058;-62
2023/04/05 09:38:44;;;;;;;20.13;7.28;;;;;;;28.73;32.45;98525.09;4946739;28;20139;-61
2023/04/05 09:41:13;;;;;;;27.87;7.47;;;;;;;28.74;33.30;98524.78;4941227;28;20059;-62
2023/04/05 09:43:42;;;;;;;16.50;6.97;;;;;;;28.81;34.04;98527.06;4949810;28;20324;-61
2023/04/05 09:46:36;;;;;;;23.15;6.80;;;;;;;28.78;32.04;98525.78;4948614;28;20118;-61
2023/04/05 09:49:08;;;;;;;16.77;7.88;;;;;;;28.81;33.73;98518.91;4948516;28;20067;-61
2023/04/05 09:51:38;;;;;;;20.50;6.50;;;;;;;28.46;29.92;98520.63;4949270;28;20047;-61
2023/04/05 09:54:11;;;;;;;19.63;7.35;;;;;;;28.31;31.33;98504.69;4932239;29;20498;-61
2023/04/05 09:56:52;;;;;;;15.60;7.03;;;;;;;28.41;33.19;98496.28;4949704;29;20050;-62
2023/04/05 09:59:22;;;;;;;19.38;6.68;;;;;;;28.61;32.55;98505.78;4949216;29;20134;-61
2023/04/05 10:01:51;;;;;;;17.65;6.32;;;;;;;28.56;31.48;98496.63;4948964;28;20138;-61
2023/04/05 10:04:24;;;;;;;16.45;5.95;;;;;;;28.55;30.30;98497.75;4949084;28;21601;-61
2023/04/05 10:06:53;;;;;;;12.85;6.00;;;;;;;28.58;30.75;98499.88;4935797;29;20047;-61
2023/04/05 10:09:23;;;;;;;19.02;5.82;;;;;;;28.52;31.86;98500.31;4948303;28;20043;-63
2023/04/05 10:11:53;;;;;;;14.23;5.80;;;;;;;28.49;31.09;98496.31;4948513;29;20056;-62
2023/04/05 10:14:22;;;;;;;17.52;6.00;;;;;;;28.50;31.56;98489.72;4931484;28;20085;-62
2023/04/05 10:17:13;;;;;;;19.52;6.80;;;;;;;28.61;32.79;98503.88;4949079;28;20102;-62
2023/04/05 10:20:10;;;;;;;19.75;6.45;;;;;;;28.65;32.15;98482.22;4948141;29;20083;-61
2023/04/05 10:23:00;;;;;;;14.98;6.85;;;;;;;28.52;28.82;98471.13;4948647;28;20055;-62
2023/04/05 10:25:51;;;;;;;14.02;6.30;;;;;;;28.31;28.68;98464.66;4939103;28;20133;-63
2023/04/05 10:28:33;;;;;;;16.42;6.00;;;;;;;28.24;29.32;98475.16;4938674;29;20051;-61
2023/04/05 10:31:18;;;;;;;13.95;5.65;;;;;;;28.28;30.63;98459.03;4948058;28;20479;-63
2023/04/05 10:34:05;;;;;;;17.40;6.97;;;;;;;28.21;33.54;98461.38;4949080;28;20499;-62
2023/04/05 10:36:45;;;;;;;10.20;5.65;;;;;;;28.13;31.89;98461.03;4948727;29;20063;-62
2023/04/05 10:39:27;;;;;;;19.77;5.75;;;;;;;28.04;31.80;98457.44;4940501;28;20048;-61
2023/04/05 10:42:06;;;;;;;14.10;5.95;;;;;;;28.03;33.52;98458.53;4929241;29;20040;-62
2023/04/05 10:44:36;;;;;;;17.77;6.70;;;;;;;27.96;33.46;98466.38;4946259;29;20067;-62
2023/04/05 10:47:12;;;;;;;13.23;5.70;;;;;;;27.87;33.29;98461.97;4948498;28;20057;-62
2023/04/05 10:49:52;;;;;;;14.35;6.22;;;;;;;27.79;35.65;98463.53;4948348;28;20463;-62
2023/04/05 10:52:23;;;;;;;15.68;5.72;;;;;;;27.77;34.22;98448.63;4946880;28;20062;-63
2023/04/05 10:54:55;;;;;;;13.77;6.25;;;;;;;27.73;35.58;98442.19;4948384;28;20158;-62
2023/04/05 10:57:25;;;;;;;20.80;6.00;;;;;;;27.72;33.26;98440.56;4947956;28;20070;-61
2023/04/05 10:59:57;;;;;;;15.00;5.40;;;;;;;27.68;33.89;98429.50;4948012;28;20066;-62
2023/04/05 11:02:29;;;;;;;22.48;5.97;;;;;;;27.62;36.14;98437.00;4947601;29;20134;-62
2023/04/05 11:05:03;;;;;;;12.13;5.22;;;;;;;27.57;34.01;98441.78;4947943;28;20055;-61
2023/04/05 11:07:44;;;;;;;14.15;5.35;;;;;;;27.51;34.37;98446.53;4947904;28;20531;-62
2023/04/05 11:10:17;;;;;;;19.48;5.78;;;;;;;27.47;35.27;98453.66;4947424;29;20047;-61
2023/04/05 11:12:54;;;;;;;13.82;4.68;;;;;;;27.43;36.21;98460.03;4948012;29;20035;-64
2023/04/05 11:15:27;;;;;;;18.60;5.57;;;;;;;27.37;35.17;98469.41;4939537;28;20054;-63
2023/04/05 11:18:11;;;;;;;10.15;4.97;;;;;;;27.34;35.99;98473.56;4948089;28;20047;-61
2023/04/05 11:21:04;;;;;;;13.68;5.18;;;;;;;27.27;35.83;98473.97;4947551;29;20047;-61
2023/04/05 11:24:02;;;;;;;10.10;4.55;;;;;;;27.14;36.57;98461.22;4940961;29;20387;-62
2023/04/05 11:26:33;;;;;;;15.77;4.43;;;;;;;27.03;34.84;98468.00;4945403;28;20051;-63
2023/04/05 11:29:02;;;;;;;17.40;4.22;;;;;;;26.98;36.28;98470.84;4947035;28;20062;-62
2023/04/05 11:31:32;;;;;;;11.85;4.57;;;;;;;26.90;35.70;98462.59;4947399;28;20071;-64
2023/04/05 11:34:11;;;;;;;16.33;5.20;;;;;;;26.79;36.94;98457.34;4955548;28;20061;-61
2023/04/05 11:36:46;;;;;;;18.73;5.22;;;;;;;26.73;38.74;98455.81;4945294;29;20391;-63
2023/04/05 11:39:22;;;;;;;18.65;5.15;;;;;;;26.66;36.76;98455.44;4947217;28;20618;-63
2023/04/05 11:42:05;;;;;;;12.45;4.57;;;;;;;26.56;37.17;98444.75;4942219;28;20047;-61
2023/04/05 11:44:50;;;;;;;17.50;5.10;;;;;;;26.51;37.68;98449.53;4933842;29;20114;-62
2023/04/05 11:47:20;;;;;;;15.75;4.72;;;;;;;26.51;38.93;98454.94;4941828;29;20118;-62
2023/04/05 11:49:51;;;;;;;17.05;4.72;;;;;;;26.44;37.99;98452.63;4946908;29;20047;-62
2023/04/05 11:52:21;;;;;;;16.13;4.97;;;;;;;26.45;39.00;98456.16;4937360;29;20048;-61